Time;durP1;ratioP1;P1;durP2;ratioP2;P2;SDS_P1;SDS_P2;PMS_P1;PMS_P2;Temp;Humidity;BMP_temperature;BMP_pressure;BME280_temperature;BME280_humidity;BME280_pressure;Samples;Min_cycle;Max_cycle;Signal;HPM_P1;HPM_P2
2021/10/13 00:00:59;;;;;;;21.92;12.73;;;;;;;13.98;42.23;99528.38;3376764;29;20045;-76
2021/10/13 00:02:40;;;;;;;18.35;12.13;;;;;;;13.99;42.08;99539.91;3378165;29;20528;-74
2021/10/13 00:04:21;;;;;;;21.73;13.18;;;;;;;14.01;41.94;99538.66;3375666;29;20045;-73
2021/10/13 00:06:02;;;;;;;20.77;13.63;;;;;;;14.01;41.91;99525.25;3375001;29;20220;-74
2021/10/13 00:07:43;;;;;;;21.42;14.18;;;;;;;14.00;41.95;99525.50;3374766;29;20085;-76
2021/10/13 00:09:23;;;;;;;22.42;12.98;;;;;;;13.92;42.20;99523.91;3374377;29;20148;-71
2021/10/13 00:11:07;;;;;;;22.17;14.00;;;;;;;13.92;42.27;99522.06;3374675;29;20542;-73
2021/10/13 00:12:48;;;;;;;25.77;12.55;;;;;;;13.90;42.40;99509.91;3374608;29;20052;-73
2021/10/13 00:14:29;;;;;;;20.70;12.80;;;;;;;13.95;42.26;99513.56;3374247;29;20678;-71
2021/10/13 00:16:10;;;;;;;22.15;12.60;;;;;;;13.98;42.50;99516.84;3373888;29;20509;-74
2021/10/13 00:17:52;;;;;;;28.80;14.45;;;;;;;13.99;42.43;99513.13;3374475;29;20093;-73
2021/10/13 00:19:32;;;;;;;23.20;13.70;;;;;;;14.00;42.29;99518.28;3374726;29;20092;-75
2021/10/13 00:21:16;;;;;;;25.70;13.07;;;;;;;14.02;42.44;99515.34;3374816;29;20040;-75
2021/10/13 00:22:56;;;;;;;20.50;12.30;;;;;;;14.04;42.33;99510.59;3374327;29;20055;-73
2021/10/13 00:24:37;;;;;;;22.55;12.52;;;;;;;14.07;42.58;99508.31;3374514;29;20064;-74
2021/10/13 00:26:18;;;;;;;22.02;13.43;;;;;;;14.10;42.39;99507.88;3375276;29;20114;-74
2021/10/13 00:27:59;;;;;;;19.40;12.32;;;;;;;14.11;42.18;99506.00;3375750;29;20041;-74
2021/10/13 00:29:40;;;;;;;20.65;12.82;;;;;;;14.12;42.09;99503.09;3374440;29;20041;-75
2021/10/13 00:31:20;;;;;;;18.60;13.10;;;;;;;14.10;42.21;99510.53;3375387;29;20048;-74
2021/10/13 00:33:01;;;;;;;23.95;13.32;;;;;;;14.11;42.17;99516.72;3366566;29;20536;-74
2021/10/13 00:34:42;;;;;;;19.65;13.77;;;;;;;14.11;42.06;99506.00;3388164;29;20044;-74
2021/10/13 00:36:22;;;;;;;20.35;12.55;;;;;;;14.12;42.39;99511.16;3372996;29;20075;-73
2021/10/13 00:38:03;;;;;;;22.25;12.25;;;;;;;14.15;42.48;99512.56;3364959;29;20037;-73
2021/10/13 00:39:44;;;;;;;22.83;14.10;;;;;;;14.15;42.25;99505.34;3364993;29;20175;-73
2021/10/13 00:41:24;;;;;;;21.63;12.57;;;;;;;14.15;42.26;99499.16;3364524;29;20041;-74
2021/10/13 00:43:05;;;;;;;23.45;13.80;;;;;;;14.16;42.30;99503.47;3364658;29;20048;-75
2021/10/13 00:44:46;;;;;;;23.23;12.05;;;;;;;14.16;42.49;99498.13;3364666;29;20057;-74
2021/10/13 00:46:26;;;;;;;19.02;12.57;;;;;;;14.15;42.56;99499.16;3371705;29;20100;-74
2021/10/13 00:48:07;;;;;;;16.70;13.10;;;;;;;14.14;42.53;99494.81;3377250;29;20044;-75
2021/10/13 00:49:49;;;;;;;24.88;13.20;;;;;;;14.13;42.56;99499.38;3377240;29;20072;-74
2021/10/13 00:51:30;;;;;;;26.53;13.97;;;;;;;14.10;42.61;99499.81;3377283;29;20044;-74
2021/10/13 00:53:10;;;;;;;18.30;13.00;;;;;;;14.10;42.65;99493.66;3377561;29;20300;-72
2021/10/13 00:54:51;;;;;;;25.23;13.30;;;;;;;14.08;42.61;99493.06;3377344;29;20289;-73
2021/10/13 00:56:32;;;;;;;24.70;13.80;;;;;;;14.08;42.49;99491.19;3370455;29;20048;-72
2021/10/13 00:58:12;;;;;;;23.92;13.77;;;;;;;14.09;42.48;99486.63;3363241;29;20703;-73
2021/10/13 00:59:53;;;;;;;26.50;14.43;;;;;;;14.10;42.47;99491.78;3363912;29;20394;-73
2021/10/13 01:01:53;;;;;;;20.95;13.73;;;;;;;14.11;42.59;99495.28;3363267;29;20041;-71
2021/10/13 01:03:44;;;;;;;20.75;13.25;;;;;;;14.06;42.53;99497.81;3363314;29;20048;-75
2021/10/13 01:05:47;;;;;;;23.35;12.13;;;;;;;14.03;43.11;99487.53;3364199;29;20045;-74
2021/10/13 01:07:30;;;;;;;20.65;10.80;;;;;;;14.12;44.65;99494.22;3364757;29;20085;-75
2021/10/13 01:09:30;;;;;;;22.70;12.18;;;;;;;14.28;43.46;99498.22;3364573;29;20079;-75
2021/10/13 01:11:32;;;;;;;19.70;12.73;;;;;;;14.27;42.96;99500.03;3363560;29;20084;-74
2021/10/13 01:13:25;;;;;;;19.95;11.82;;;;;;;14.26;44.04;99501.09;3364205;29;20052;-73
2021/10/13 01:15:35;;;;;;;16.77;11.57;;;;;;;14.30;43.52;99490.72;3376178;29;20047;-73
2021/10/13 01:17:21;;;;;;;22.73;13.35;;;;;;;14.30;43.02;99494.25;3363184;29;20048;-75
2021/10/13 01:19:14;;;;;;;18.35;11.38;;;;;;;14.40;43.98;99488.34;3388797;29;20143;-75
2021/10/13 01:21:19;;;;;;;17.77;11.32;;;;;;;14.64;44.07;99483.97;3376965;29;20060;-75
2021/10/13 01:23:26;;;;;;;18.35;12.43;;;;;;;14.73;42.79;99489.84;3376761;29;20063;-74
2021/10/13 01:25:22;;;;;;;24.52;12.18;;;;;;;14.66;42.40;99487.22;3376396;29;20529;-74
2021/10/13 01:27:18;;;;;;;18.98;12.63;;;;;;;14.56;42.58;99503.03;3371218;29;20040;-74
2021/10/13 01:29:05;;;;;;;20.15;11.60;;;;;;;14.50;42.66;99491.31;3364080;29;20104;-74
2021/10/13 01:31:08;;;;;;;19.88;11.25;;;;;;;14.55;43.00;99496.03;3375894;29;20056;-75
2021/10/13 01:32:58;;;;;;;16.80;11.88;;;;;;;14.59;42.60;99490.00;3388777;29;20075;-75
2021/10/13 01:34:45;;;;;;;25.00;13.40;;;;;;;14.59;42.62;99487.34;3364584;29;20051;-74
2021/10/13 01:36:38;;;;;;;17.92;12.45;;;;;;;14.52;42.34;99486.56;3350608;29;20045;-73
2021/10/13 01:38:22;;;;;;;18.55;12.23;;;;;;;14.38;42.53;99480.56;3375854;29;20059;-73
2021/10/13 01:40:05;;;;;;;18.20;11.32;;;;;;;14.26;42.62;99476.97;3376707;29;20060;-75
2021/10/13 01:41:46;;;;;;;24.75;13.75;;;;;;;14.26;42.78;99482.34;3362911;29;20041;-72
2021/10/13 01:43:28;;;;;;;19.77;12.45;;;;;;;14.18;42.99;99480.75;3370963;29;20036;-73
2021/10/13 01:45:10;;;;;;;26.00;12.85;;;;;;;14.15;43.04;99478.53;3373292;29;20131;-72
2021/10/13 01:46:50;;;;;;;18.33;11.20;;;;;;;14.18;42.99;99477.28;3373069;29;20044;-74
2021/10/13 01:48:32;;;;;;;20.30;12.60;;;;;;;14.19;43.00;99476.22;3376223;29;20135;-75
2021/10/13 01:50:13;;;;;;;14.32;10.32;;;;;;;14.28;43.30;99471.41;3388794;29;20068;-74
2021/10/13 01:51:54;;;;;;;19.67;12.00;;;;;;;14.39;43.50;99465.28;3401667;29;20099;-75
2021/10/13 01:53:35;;;;;;;21.37;12.40;;;;;;;14.61;43.06;99471.84;3365139;29;20052;-74
2021/10/13 01:55:18;;;;;;;22.25;12.30;;;;;;;14.72;42.68;99462.19;3370478;29;20685;-75
2021/10/13 01:57:00;;;;;;;20.38;11.05;;;;;;;14.74;42.45;99473.53;3371831;29;20045;-74
2021/10/13 01:58:42;;;;;;;18.35;12.50;;;;;;;14.67;42.24;99478.16;3375393;29;20040;-74
2021/10/13 02:00:23;;;;;;;20.02;11.85;;;;;;;14.58;42.32;99474.13;3365179;29;20497;-74
2021/10/13 02:02:04;;;;;;;20.37;12.20;;;;;;;14.48;42.59;99471.13;3386218;29;20051;-74
2021/10/13 02:03:46;;;;;;;16.85;11.57;;;;;;;14.39;42.59;99470.63;3368710;29;20298;-73
2021/10/13 02:05:27;;;;;;;20.25;12.27;;;;;;;14.38;42.68;99480.56;3363614;29;20045;-75
2021/10/13 02:07:11;;;;;;;18.40;11.63;;;;;;;14.34;42.91;99473.97;3384937;29;20060;-75
2021/10/13 02:08:53;;;;;;;17.60;10.63;;;;;;;14.36;42.85;99471.91;3377692;29;20041;-74
2021/10/13 02:10:34;;;;;;;17.92;12.45;;;;;;;14.38;42.75;99464.47;3399014;29;20050;-72
2021/10/13 02:12:15;;;;;;;20.05;13.20;;;;;;;14.36;42.68;99463.84;3378121;29;20041;-72
2021/10/13 02:14:01;;;;;;;23.20;12.73;;;;;;;14.35;42.78;99454.19;3375352;29;20057;-75
2021/10/13 02:15:44;;;;;;;18.85;11.93;;;;;;;14.34;42.70;99467.81;3376286;29;20063;-76
2021/10/13 02:17:24;;;;;;;18.25;12.50;;;;;;;14.31;42.74;99462.91;3363157;29;20063;-74
2021/10/13 02:19:07;;;;;;;18.88;11.90;;;;;;;14.28;42.84;99480.25;3385635;29;20048;-74
2021/10/13 02:20:48;;;;;;;21.42;11.77;;;;;;;14.31;42.96;99473.63;3365077;29;20553;-74
2021/10/13 02:22:30;;;;;;;17.02;11.95;;;;;;;14.32;42.84;99472.56;3385699;29;20528;-74
2021/10/13 02:24:10;;;;;;;19.92;12.55;;;;;;;14.36;42.97;99473.78;3364918;29;20085;-74
2021/10/13 02:25:52;;;;;;;21.75;12.82;;;;;;;14.39;42.91;99471.44;3364597;29;20132;-76
2021/10/13 02:27:40;;;;;;;;;;;;;;;14.51;42.67;99476.06;3375645;29;20052;-74
2021/10/13 02:29:21;;;;;;;17.90;11.05;;;;;;;14.54;42.98;99479.16;3375306;29;19916;-75
2021/10/13 02:31:02;;;;;;;15.88;11.32;;;;;;;14.65;42.92;99479.44;3398761;29;20040;-74
2021/10/13 02:32:42;;;;;;;18.23;10.05;;;;;;;14.77;43.34;99489.16;3375236;29;20072;-75
2021/10/13 02:34:23;;;;;;;18.73;10.40;;;;;;;14.80;42.77;99477.97;3375846;29;20540;-75
2021/10/13 02:36:04;;;;;;;16.30;11.00;;;;;;;14.77;42.66;99473.06;3387975;29;20059;-74
2021/10/13 02:37:45;;;;;;;18.58;10.88;;;;;;;14.74;42.81;99467.31;3378437;29;20513;-76
2021/10/13 02:39:25;;;;;;;21.13;11.05;;;;;;;14.76;42.95;99454.50;3376170;29;20048;-75
2021/10/13 02:41:06;;;;;;;20.88;12.00;;;;;;;14.71;42.72;99457.88;3376012;29;20152;-74
2021/10/13 02:42:47;;;;;;;17.27;10.68;;;;;;;14.68;43.17;99457.50;3376193;29;20048;-75
2021/10/13 02:44:27;;;;;;;25.38;10.65;;;;;;;14.70;43.19;99461.59;3375856;29;20041;-73
2021/10/13 02:46:33;;;;;;;14.80;10.23;;;;;;;14.76;43.04;99458.00;3400466;29;20497;-75
2021/10/13 02:48:20;;;;;;;16.20;11.05;;;;;;;14.72;42.69;99453.34;3375616;29;20135;-74
2021/10/13 02:50:38;;;;;;;19.58;9.75;;;;;;;14.78;43.04;99453.22;3375687;29;20045;-74
2021/10/13 02:52:47;;;;;;;17.50;11.25;;;;;;;14.73;42.78;99454.97;3371134;29;20041;-75
2021/10/13 02:55:03;;;;;;;15.93;11.48;;;;;;;14.69;42.60;99464.50;3335812;29;20189;-73
2021/10/13 02:56:46;;;;;;;20.20;10.40;;;;;;;14.77;43.41;99462.34;3375232;29;20056;-73
2021/10/13 02:58:40;;;;;;;21.35;11.13;;;;;;;14.96;42.94;99470.34;3400812;29;20058;-75
2021/10/13 03:00:21;;;;;;;21.05;11.05;;;;;;;15.05;42.79;99463.59;3375063;29;20105;-74
2021/10/13 03:02:04;;;;;;;17.98;11.00;;;;;;;15.16;42.29;99464.69;3398542;29;20126;-73
2021/10/13 03:03:51;;;;;;;15.80;9.57;;;;;;;15.22;42.39;99464.56;3377404;29;20040;-74
2021/10/13 03:05:32;;;;;;;18.15;10.15;;;;;;;15.14;42.20;99461.41;3374766;29;20043;-74
2021/10/13 03:07:22;;;;;;;17.05;10.60;;;;;;;15.02;42.49;99458.66;3374064;29;20063;-74
2021/10/13 03:09:03;;;;;;;22.35;11.55;;;;;;;14.77;42.56;99443.56;3360517;29;20425;-74
2021/10/13 03:10:48;;;;;;;21.70;11.02;;;;;;;14.66;43.08;99465.78;3369531;29;20041;-74
2021/10/13 03:12:41;;;;;;;16.08;10.10;;;;;;;14.58;43.34;99458.03;3375388;29;20048;-74
2021/10/13 03:14:23;;;;;;;25.05;10.15;;;;;;;14.43;43.37;99455.75;3373466;29;20135;-75
2021/10/13 03:16:04;;;;;;;;;;;;;;;14.47;43.41;99459.59;3385199;29;20149;-72
2021/10/13 03:17:48;;;;;;;18.13;10.45;;;;;;;14.36;43.80;99455.00;3374549;29;19935;-74
2021/10/13 03:19:33;;;;;;;19.48;10.40;;;;;;;14.36;44.19;99455.81;3372174;29;20096;-74
2021/10/13 03:21:14;;;;;;;16.50;9.93;;;;;;;14.46;44.00;99449.13;3372706;29;20048;-75
2021/10/13 03:22:57;;;;;;;16.50;10.52;;;;;;;14.54;43.66;99446.16;3375379;29;20036;-74
2021/10/13 03:24:40;;;;;;;15.38;9.88;;;;;;;14.45;43.82;99442.09;3374843;29;20604;-74
2021/10/13 03:26:20;;;;;;;19.35;10.20;;;;;;;14.34;43.96;99431.09;3375107;29;20033;-76
2021/10/13 03:28:04;;;;;;;22.13;10.57;;;;;;;14.26;43.77;99439.44;3375470;29;20041;-75
2021/10/13 03:29:45;;;;;;;17.98;9.82;;;;;;;14.28;44.54;99426.63;3400767;29;20046;-73
2021/10/13 03:31:25;;;;;;;17.00;9.77;;;;;;;14.34;44.39;99446.34;3380579;29;20044;-73
2021/10/13 03:33:06;;;;;;;15.85;9.23;;;;;;;14.54;44.71;99430.06;3375888;29;20044;-74
2021/10/13 03:34:47;;;;;;;15.40;9.10;;;;;;;14.76;44.13;99422.31;3372862;29;20079;-74
2021/10/13 03:36:37;;;;;;;15.98;9.68;;;;;;;14.82;43.61;99429.47;3373408;29;20453;-74
2021/10/13 03:38:18;;;;;;;12.90;8.57;;;;;;;14.90;44.08;99422.94;3371909;29;20050;-75
2021/10/13 03:39:58;;;;;;;14.82;7.95;;;;;;;15.01;43.87;99419.47;3362482;29;20041;-74
2021/10/13 03:41:40;;;;;;;20.30;10.07;;;;;;;15.18;43.48;99419.59;3362616;29;20052;-75
2021/10/13 03:43:20;;;;;;;17.63;10.20;;;;;;;15.24;43.10;99430.25;3362772;29;20108;-75
2021/10/13 03:45:01;;;;;;;21.88;10.60;;;;;;;15.24;42.92;99424.88;3369129;29;20048;-75
2021/10/13 03:46:42;;;;;;;16.42;10.10;;;;;;;15.22;42.86;99432.34;3398594;29;20412;-74
2021/10/13 03:48:23;;;;;;;16.55;9.70;;;;;;;15.18;42.92;99425.81;3380447;29;20045;-75
2021/10/13 03:50:05;;;;;;;20.92;9.15;;;;;;;15.14;42.80;99430.00;3374305;29;20112;-74
2021/10/13 03:51:45;;;;;;;16.88;9.63;;;;;;;15.18;42.88;99425.81;3398207;29;20046;-74
2021/10/13 03:53:26;;;;;;;18.35;9.48;;;;;;;15.34;43.17;99426.19;3380237;29;20079;-75
2021/10/13 03:55:09;;;;;;;19.05;9.48;;;;;;;15.45;42.73;99423.50;3375298;29;20500;-74
2021/10/13 03:56:50;;;;;;;13.32;9.00;;;;;;;15.51;42.32;99428.97;3374359;29;20053;-73
2021/10/13 03:58:31;;;;;;;14.02;8.80;;;;;;;15.59;42.62;99421.41;3375232;29;20501;-73
2021/10/13 04:00:14;;;;;;;15.80;8.93;;;;;;;15.74;42.55;99417.44;3400444;29;20535;-73
2021/10/13 04:01:55;;;;;;;14.65;8.75;;;;;;;15.80;42.15;99416.50;3379543;29;20453;-74
2021/10/13 04:03:36;;;;;;;13.85;8.60;;;;;;;15.83;41.79;99413.38;3375530;29;20100;-74
2021/10/13 04:05:17;;;;;;;19.10;9.25;;;;;;;15.95;41.85;99424.91;3375051;29;20572;-74
2021/10/13 04:06:58;;;;;;;12.90;8.73;;;;;;;16.08;41.84;99421.97;3373069;29;20045;-76
2021/10/13 04:08:38;;;;;;;15.77;9.52;;;;;;;16.20;41.32;99416.53;3375190;29;20127;-74
2021/10/13 04:10:19;;;;;;;17.90;9.82;;;;;;;16.11;41.06;99434.13;3375295;29;20064;-76
2021/10/13 04:12:00;;;;;;;16.42;9.15;;;;;;;15.98;41.28;99426.28;3376903;29;20095;-75
2021/10/13 04:13:41;;;;;;;15.60;9.57;;;;;;;15.90;41.43;99422.09;3377680;29;20040;-74
2021/10/13 04:15:21;;;;;;;18.42;9.90;;;;;;;15.88;41.38;99425.03;3377002;29;20040;-75
2021/10/13 04:17:02;;;;;;;14.35;9.25;;;;;;;15.84;41.35;99433.81;3367775;29;20128;-74
2021/10/13 04:18:43;;;;;;;15.25;9.05;;;;;;;15.72;41.40;99427.59;3364721;29;20144;-75
2021/10/13 04:20:24;;;;;;;15.20;9.63;;;;;;;15.72;41.63;99425.75;3387228;29;20504;-75
2021/10/13 04:22:04;;;;;;;16.88;9.65;;;;;;;15.67;41.63;99418.38;3367324;29;20596;-76
2021/10/13 04:23:45;;;;;;;12.55;8.48;;;;;;;15.56;41.69;99419.16;3366503;29;20048;-75
2021/10/13 04:25:26;;;;;;;13.57;8.93;;;;;;;15.49;41.64;99413.94;3377987;29;20412;-75
2021/10/13 04:27:07;;;;;;;12.52;8.35;;;;;;;15.56;41.93;99429.91;3372031;29;20185;-76
2021/10/13 04:28:47;;;;;;;13.95;9.25;;;;;;;15.68;41.93;99436.09;3378580;29;20408;-76
2021/10/13 04:30:28;;;;;;;19.23;9.35;;;;;;;15.75;41.51;99440.56;3378519;29;20064;-75
2021/10/13 04:32:09;;;;;;;15.45;9.23;;;;;;;15.67;41.39;99428.31;3379410;29;20052;-75
2021/10/13 04:33:49;;;;;;;16.58;9.13;;;;;;;15.59;41.70;99429.47;3379659;29;20049;-74
2021/10/13 04:35:31;;;;;;;17.67;9.57;;;;;;;15.52;41.80;99431.44;3377525;29;20036;-75
2021/10/13 04:37:11;;;;;;;17.50;9.88;;;;;;;15.42;41.65;99436.59;3374216;29;20052;-75
2021/10/13 04:38:52;;;;;;;14.75;8.57;;;;;;;15.26;42.15;99444.25;3376561;29;20420;-75
2021/10/13 04:40:33;;;;;;;16.02;9.23;;;;;;;15.18;42.30;99431.19;3377592;29;20052;-73
2021/10/13 04:42:14;;;;;;;14.20;8.43;;;;;;;15.24;42.63;99437.50;3402623;29;20051;-74
2021/10/13 04:43:55;;;;;;;14.48;9.05;;;;;;;15.38;42.23;99425.47;3379039;29;20528;-75
2021/10/13 04:45:36;;;;;;;13.18;9.35;;;;;;;15.50;41.82;99433.53;3376704;29;20513;-75
2021/10/13 04:47:17;;;;;;;19.55;10.77;;;;;;;15.37;42.03;99428.41;3375763;29;20048;-76
2021/10/13 04:48:57;;;;;;;14.90;8.85;;;;;;;15.27;42.20;99420.91;3373567;29;20067;-75
2021/10/13 04:50:38;;;;;;;13.40;8.30;;;;;;;15.35;42.57;99425.13;3376962;29;20098;-75
2021/10/13 04:52:18;;;;;;;14.15;9.13;;;;;;;15.51;42.35;99419.06;3376968;29;20053;-76
2021/10/13 04:53:59;;;;;;;15.65;8.70;;;;;;;15.58;41.93;99406.31;3376000;29;20052;-76
2021/10/13 04:55:40;;;;;;;11.88;7.78;;;;;;;15.72;41.73;99414.16;3377117;29;20051;-75
2021/10/13 04:57:20;;;;;;;15.65;9.68;;;;;;;15.70;41.66;99415.25;3375378;29;20044;-75
2021/10/13 04:59:01;;;;;;;12.88;9.60;;;;;;;15.72;41.67;99416.84;3377334;29;20054;-76
2021/10/13 05:00:42;;;;;;;16.27;9.23;;;;;;;15.67;41.47;99407.63;3375258;29;20044;-76
2021/10/13 05:02:22;;;;;;;17.52;8.63;;;;;;;15.73;42.15;99419.31;3373078;29;20044;-75
2021/10/13 05:04:03;;;;;;;14.00;7.82;;;;;;;15.99;42.34;99428.75;3364869;29;20599;-75
2021/10/13 05:05:44;;;;;;;12.55;8.02;;;;;;;16.29;41.84;99425.06;3365030;29;20588;-76
2021/10/13 05:07:25;;;;;;;14.85;9.50;;;;;;;16.51;41.32;99426.03;3367158;29;20067;-78
2021/10/13 05:09:05;;;;;;;13.43;8.57;;;;;;;16.66;40.94;99420.13;3363383;29;20104;-78
2021/10/13 05:10:46;;;;;;;15.00;8.20;;;;;;;16.76;41.08;99425.69;3364358;29;20159;-75
2021/10/13 05:12:27;;;;;;;21.70;9.10;;;;;;;16.72;40.78;99434.50;3369116;29;20041;-77
2021/10/13 05:14:07;;;;;;;15.43;8.13;;;;;;;16.74;41.18;99433.19;3377312;29;20040;-75
2021/10/13 05:15:48;;;;;;;18.85;8.20;;;;;;;16.79;41.15;99435.19;3377285;29;20123;-75
2021/10/13 05:17:29;;;;;;;19.10;9.30;;;;;;;16.85;41.25;99439.59;3376168;29;20036;-78
2021/10/13 05:19:09;;;;;;;16.67;8.15;;;;;;;17.02;40.99;99441.53;3376273;29;20048;-75
2021/10/13 05:20:50;;;;;;;19.33;7.68;;;;;;;17.17;41.51;99439.91;3376714;29;20045;-77
2021/10/13 05:22:31;;;;;;;15.60;9.40;;;;;;;17.26;40.89;99448.38;3376074;29;20045;-77
2021/10/13 05:24:11;;;;;;;17.13;8.63;;;;;;;17.35;40.78;99446.13;3377163;29;20131;-76
2021/10/13 05:25:52;;;;;;;15.95;9.13;;;;;;;17.48;40.84;99447.66;3377255;29;20115;-75
2021/10/13 05:27:33;;;;;;;17.27;8.18;;;;;;;17.57;40.48;99444.31;3376802;29;20041;-76
2021/10/13 05:29:13;;;;;;;17.08;8.60;;;;;;;17.58;40.34;99447.81;3377098;29;20055;-76
2021/10/13 05:30:54;;;;;;;16.13;8.63;;;;;;;17.68;40.48;99442.56;3375882;29;20079;-78
2021/10/13 05:32:35;;;;;;;13.32;8.02;;;;;;;17.60;40.09;99448.38;3365634;29;20536;-77
2021/10/13 05:34:15;;;;;;;12.80;7.90;;;;;;;17.55;40.32;99449.13;3377570;29;20100;-77
2021/10/13 05:35:56;;;;;;;14.85;7.32;;;;;;;17.59;40.70;99444.06;3377059;29;20408;-76
2021/10/13 05:37:37;;;;;;;12.00;7.50;;;;;;;17.71;40.54;99452.03;3376528;29;20059;-78
2021/10/13 05:39:17;;;;;;;19.63;9.52;;;;;;;17.60;40.03;99443.00;3376744;29;20048;-78
2021/10/13 05:40:58;;;;;;;16.00;8.15;;;;;;;17.55;40.22;99449.13;3376435;29;20136;-77
2021/10/13 05:42:39;;;;;;;17.08;9.55;;;;;;;17.50;40.23;99453.63;3377017;29;20054;-80
2021/10/13 05:44:20;;;;;;;16.17;8.82;;;;;;;17.30;40.41;99451.44;3376737;29;20044;-80
2021/10/13 05:46:00;;;;;;;17.52;9.27;;;;;;;17.17;40.39;99448.00;3381836;29;20046;-78
2021/10/13 05:47:41;;;;;;;17.13;8.52;;;;;;;17.07;40.90;99442.44;3375597;29;20182;-77
2021/10/13 05:49:22;;;;;;;14.02;8.27;;;;;;;17.10;40.96;99450.00;3376652;29;20072;-77
2021/10/13 05:51:02;;;;;;;17.58;9.57;;;;;;;17.07;41.03;99455.09;3377076;29;20124;-77
2021/10/13 05:52:43;;;;;;;13.07;8.55;;;;;;;17.14;41.10;99458.41;3376808;29;20536;-77
2021/10/13 05:54:24;;;;;;;14.88;8.50;;;;;;;17.24;40.90;99461.28;3376628;29;20072;-79
2021/10/13 05:56:05;;;;;;;14.23;8.57;;;;;;;17.34;40.71;99453.38;3372320;29;20135;-81
2021/10/13 05:57:45;;;;;;;15.87;9.27;;;;;;;17.44;40.51;99447.34;3376493;29;20043;-78
2021/10/13 05:59:26;;;;;;;16.67;7.57;;;;;;;17.56;40.76;99455.34;3374933;29;20812;-80
2021/10/13 06:01:07;;;;;;;16.15;8.77;;;;;;;17.57;40.57;99451.56;3376401;29;20036;-76
2021/10/13 06:02:48;;;;;;;15.88;9.45;;;;;;;17.49;40.41;99452.00;3376082;29;20052;-78
2021/10/13 06:04:28;;;;;;;15.02;8.63;;;;;;;17.51;40.91;99455.25;3375620;29;20524;-78
2021/10/13 06:06:09;;;;;;;12.02;7.63;;;;;;;17.53;40.58;99462.03;3376645;29;20053;-79
2021/10/13 06:07:50;;;;;;;22.17;10.88;;;;;;;17.40;40.82;99452.41;3376132;29;20077;-78
2021/10/13 06:09:30;;;;;;;13.57;8.45;;;;;;;17.34;41.57;99449.88;3374589;29;20386;-78
2021/10/13 06:11:12;;;;;;;13.88;8.50;;;;;;;17.30;41.29;99451.44;3376614;29;20503;-77
2021/10/13 06:12:52;;;;;;;15.55;7.70;;;;;;;17.36;41.55;99448.56;3375941;29;20048;-79
2021/10/13 06:14:33;;;;;;;16.35;10.50;;;;;;;17.43;41.17;99445.72;3377020;29;20040;-78
2021/10/13 06:16:14;;;;;;;12.65;9.13;;;;;;;17.39;41.48;99445.38;3375899;29;20075;-78
2021/10/13 06:17:54;;;;;;;14.38;8.43;;;;;;;17.27;41.61;99433.88;3376339;29;20053;-78
2021/10/13 06:19:35;;;;;;;16.42;9.70;;;;;;;17.14;41.68;99434.19;3375642;29;20408;-79
2021/10/13 06:21:22;;;;;;;15.57;8.70;;;;;;;17.02;42.38;99441.53;3376075;29;20044;-79
2021/10/13 06:23:03;;;;;;;18.75;10.75;;;;;;;17.04;42.07;99434.84;3376326;29;20044;-78
2021/10/13 06:24:44;;;;;;;14.80;8.45;;;;;;;17.16;42.02;99435.56;3376421;29;20051;-78
2021/10/13 06:26:25;;;;;;;16.95;10.02;;;;;;;17.28;41.88;99435.50;3375817;29;20041;-78
2021/10/13 06:28:05;;;;;;;12.77;8.63;;;;;;;17.39;41.78;99425.69;3376031;29;20408;-78
2021/10/13 06:29:46;;;;;;;14.57;8.90;;;;;;;17.52;41.17;99433.44;3372158;29;20052;-76
2021/10/13 06:31:27;;;;;;;11.75;8.45;;;;;;;17.63;41.15;99424.47;3363963;29;20143;-79
2021/10/13 06:33:07;;;;;;;15.77;9.32;;;;;;;17.74;40.88;99413.84;3365818;29;20049;-77
2021/10/13 06:34:48;;;;;;;16.17;8.68;;;;;;;17.80;40.65;99426.34;3363860;29;20167;-76
2021/10/13 06:36:29;;;;;;;15.73;8.80;;;;;;;17.86;40.44;99420.78;3372148;29;20044;-76
2021/10/13 06:38:09;;;;;;;16.23;8.82;;;;;;;17.93;40.78;99419.78;3376055;29;20076;-77
2021/10/13 06:39:51;;;;;;;14.23;9.10;;;;;;;17.84;40.77;99417.50;3374774;29;20040;-78
2021/10/13 06:41:32;;;;;;;19.73;10.70;;;;;;;17.66;40.75;99413.19;3375977;29;20048;-78
2021/10/13 06:43:12;;;;;;;14.85;8.60;;;;;;;17.57;40.97;99409.25;3375992;29;20079;-77
2021/10/13 06:44:53;;;;;;;16.13;9.60;;;;;;;17.56;41.37;99404.16;3367124;29;20044;-76
2021/10/13 06:46:33;;;;;;;14.68;8.73;;;;;;;17.60;41.30;99400.69;3370221;29;20047;-77
2021/10/13 06:48:14;;;;;;;16.10;8.32;;;;;;;17.66;41.23;99402.41;3376200;29;20036;-78
2021/10/13 06:49:55;;;;;;;16.45;9.07;;;;;;;17.73;41.26;99404.91;3376647;29;20055;-77
2021/10/13 06:51:36;;;;;;;12.95;7.80;;;;;;;17.87;40.76;99419.69;3376563;29;20052;-77
2021/10/13 06:53:17;;;;;;;17.10;9.57;;;;;;;18.06;40.71;99411.31;3376520;29;20104;-77
2021/10/13 06:54:58;;;;;;;18.13;10.45;;;;;;;18.07;40.30;99411.06;3375561;29;20571;-77
2021/10/13 06:56:39;;;;;;;11.93;8.65;;;;;;;18.05;40.36;99407.00;3374022;29;20040;-78
2021/10/13 06:58:20;;;;;;;17.38;9.77;;;;;;;17.96;40.55;99397.69;3373301;29;20108;-77
2021/10/13 07:00:00;;;;;;;18.13;9.95;;;;;;;17.84;40.38;99406.72;3373814;29;20040;-75
2021/10/13 07:01:41;;;;;;;13.30;8.23;;;;;;;17.81;40.81;99409.94;3385554;29;20638;-77
2021/10/13 07:03:22;;;;;;;15.23;8.33;;;;;;;17.83;40.77;99415.06;3377697;29;20077;-76
2021/10/13 07:05:03;;;;;;;18.42;9.43;;;;;;;17.84;40.94;99414.00;3372824;29;20428;-77
2021/10/13 07:06:43;;;;;;;14.35;8.55;;;;;;;17.91;40.96;99416.50;3374874;29;20072;-79
2021/10/13 07:08:24;;;;;;;17.20;9.65;;;;;;;18.01;40.49;99430.13;3373818;29;20048;-77
2021/10/13 07:10:05;;;;;;;16.33;8.98;;;;;;;18.13;40.29;99438.09;3371050;29;20041;-78
2021/10/13 07:11:45;;;;;;;21.23;10.18;;;;;;;18.20;40.05;99439.56;3362453;29;20068;-78
2021/10/13 07:13:26;;;;;;;15.88;9.70;;;;;;;18.17;39.85;99434.63;3362883;29;20056;-76
2021/10/13 07:15:10;;;;;;;17.38;9.45;;;;;;;18.06;40.39;99438.28;3365914;29;20072;-78
2021/10/13 07:16:51;;;;;;;16.10;9.20;;;;;;;17.90;40.56;99436.47;3400246;29;20534;-76
2021/10/13 07:18:32;;;;;;;18.80;10.43;;;;;;;17.77;40.31;99429.50;3377753;29;20036;-78
2021/10/13 07:20:13;;;;;;;15.57;8.83;;;;;;;17.66;40.95;99425.84;3370543;29;20063;-78
2021/10/13 07:21:54;;;;;;;16.52;9.13;;;;;;;17.68;41.03;99421.00;3372043;29;20040;-77
2021/10/13 07:23:34;;;;;;;17.55;9.45;;;;;;;17.76;41.15;99417.91;3375267;29;20072;-78
2021/10/13 07:25:20;;;;;;;20.52;11.60;;;;;;;17.79;40.86;99422.00;3374665;29;20522;-78
2021/10/13 07:27:00;;;;;;;16.50;8.90;;;;;;;17.78;40.89;99420.34;3373098;29;20041;-79
2021/10/13 07:28:42;;;;;;;19.00;9.75;;;;;;;17.89;41.01;99422.16;3372259;29;20665;-79
2021/10/13 07:30:24;;;;;;;17.30;10.40;;;;;;;17.94;40.44;99421.38;3372242;29;20052;-79
2021/10/13 07:32:04;;;;;;;13.27;8.80;;;;;;;17.95;40.63;99420.34;3360464;29;20052;-79
2021/10/13 07:33:45;;;;;;;24.95;11.65;;;;;;;17.86;40.59;99434.25;3391946;29;20044;-80
2021/10/13 07:35:29;;;;;;;16.48;9.90;;;;;;;17.77;40.87;99430.31;3378067;29;20424;-79
2021/10/13 07:37:28;;;;;;;;;;;;;;;17.90;40.57;99434.56;3388119;29;20051;-78
2021/10/13 07:39:09;;;;;;;19.35;10.65;;;;;;;17.84;40.08;99430.19;3374060;29;20371;-78
2021/10/13 07:40:51;;;;;;;15.40;10.20;;;;;;;17.74;40.17;99436.22;3365108;29;20037;-78
2021/10/13 07:42:33;;;;;;;18.95;10.13;;;;;;;17.76;40.75;99436.78;3374634;29;20052;-79
2021/10/13 07:44:13;;;;;;;21.17;10.05;;;;;;;17.77;40.21;99438.41;3373698;29;22345;-79
2021/10/13 07:45:54;;;;;;;13.60;8.47;;;;;;;17.90;40.46;99444.53;3363313;29;20053;-79
2021/10/13 07:47:37;;;;;;;21.75;10.77;;;;;;;18.00;40.23;99445.50;3366679;29;20513;-78
2021/10/13 07:49:18;;;;;;;16.27;10.40;;;;;;;18.04;39.71;99445.78;3373898;29;20141;-77
2021/10/13 07:51:01;;;;;;;19.50;11.05;;;;;;;18.09;39.69;99446.69;3379292;29;20496;-79
2021/10/13 07:52:42;;;;;;;20.90;11.45;;;;;;;18.06;39.80;99447.19;3379583;29;20060;-78
2021/10/13 07:54:24;;;;;;;15.10;11.20;;;;;;;17.94;39.96;99445.66;3379739;29;20420;-77
2021/10/13 07:56:06;;;;;;;18.23;10.23;;;;;;;17.73;40.43;99439.94;3379732;29;20045;-77